createdAt,value
2023-04-04T00:00:55.775Z,52.64
2023-04-04T00:03:25.301Z,52.59
2023-04-04T00:05:54.705Z,52.40
2023-04-04T00:08:24.251Z,52.63
2023-04-04T00:11:17.560Z,52.62
2023-04-04T00:13:47.384Z,52.84
2023-04-04T00:16:16.671Z,53.00
2023-04-04T00:18:46.083Z,52.59
2023-04-04T00:21:15.309Z,52.26
2023-04-04T00:23:45.179Z,52.59
2023-04-04T00:26:16.013Z,52.59
2023-04-04T00:28:45.301Z,52.43
2023-04-04T00:31:14.699Z,52.76
2023-04-04T00:33:43.963Z,52.64
2023-04-04T00:36:30.344Z,52.70
2023-04-04T00:39:17.824Z,52.87
2023-04-04T00:41:50.871Z,52.59
2023-04-04T00:44:20.404Z,52.76
2023-04-04T00:46:49.863Z,52.80
2023-04-04T00:49:19.352Z,52.74
2023-04-04T00:52:08.158Z,52.96
2023-04-04T00:55:14.252Z,52.70
2023-04-04T00:57:45.132Z,52.50
2023-04-04T01:00:16.376Z,52.77
2023-04-04T01:02:46.006Z,52.64
2023-04-04T01:05:33.441Z,52.64
2023-04-04T01:08:23.678Z,52.66
2023-04-04T01:10:53.068Z,52.46
2023-04-04T01:13:23.963Z,52.66
2023-04-04T01:15:53.380Z,52.44
2023-04-04T01:18:24.584Z,52.54
2023-04-04T01:20:59.493Z,52.59
2023-04-04T01:23:37.540Z,52.54
2023-04-04T01:26:25.046Z,52.47
2023-04-04T01:29:15.511Z,52.58
2023-04-04T01:31:49.948Z,52.31
2023-04-04T01:34:26.120Z,52.41
2023-04-04T01:37:02.664Z,52.22
2023-04-04T01:39:37.486Z,52.18
2023-04-04T01:42:09.321Z,52.18
2023-04-04T01:44:38.897Z,52.19
2023-04-04T01:47:09.062Z,52.31
2023-04-04T01:49:38.154Z,52.20
2023-04-04T01:52:07.800Z,52.28
2023-04-04T01:54:53.831Z,52.21
2023-04-04T01:57:24.542Z,52.40
2023-04-04T02:00:11.685Z,52.00
2023-04-04T02:02:41.073Z,52.03
2023-04-04T02:05:10.727Z,51.78
2023-04-04T02:07:39.888Z,51.86
2023-04-04T02:10:10.008Z,52.19
2023-04-04T02:12:57.795Z,51.96
2023-04-04T02:15:27.130Z,51.80
2023-04-04T02:17:56.279Z,51.48
2023-04-04T02:20:25.454Z,51.93
2023-04-04T02:22:55.344Z,51.48
2023-04-04T02:25:25.092Z,51.44
2023-04-04T02:28:12.464Z,51.56
2023-04-04T02:30:58.511Z,51.47
2023-04-04T02:33:28.910Z,51.19
2023-04-04T02:36:16.444Z,51.60
2023-04-04T02:39:05.201Z,51.15
2023-04-04T02:41:34.286Z,51.25
2023-04-04T02:44:23.705Z,51.53
2023-04-04T02:46:52.855Z,51.11
2023-04-04T02:49:22.077Z,51.13
2023-04-04T02:51:51.129Z,51.16
2023-04-04T02:54:20.185Z,51.10
2023-04-04T02:56:49.257Z,51.28
2023-04-04T02:59:18.699Z,51.04
2023-04-04T03:01:49.380Z,51.33
2023-04-04T03:04:20.050Z,50.98
2023-04-04T03:06:49.362Z,51.20
2023-04-04T03:09:36.960Z,51.26
2023-04-04T03:12:06.156Z,51.40
2023-04-04T03:14:52.958Z,51.47
2023-04-04T03:17:23.677Z,51.25
2023-04-04T03:20:09.720Z,50.92
2023-04-04T03:22:38.857Z,51.33
2023-04-04T03:25:26.454Z,51.13
2023-04-04T03:27:55.678Z,50.75
2023-04-04T03:30:24.931Z,50.88
2023-04-04T03:32:55.754Z,51.05
2023-04-04T03:35:25.107Z,50.86
2023-04-04T03:38:12.959Z,50.54
2023-04-04T03:40:42.478Z,50.91
2023-04-04T03:43:11.731Z,50.49
2023-04-04T03:45:58.223Z,50.71
2023-04-04T03:48:28.956Z,50.75
2023-04-04T03:50:59.539Z,50.58
2023-04-04T03:53:46.167Z,50.83
2023-04-04T03:56:15.198Z,50.80
2023-04-04T03:59:02.331Z,50.74
2023-04-04T04:01:31.523Z,50.69
2023-04-04T04:04:02.820Z,50.43
2023-04-04T04:06:49.272Z,50.52
2023-04-04T04:09:19.571Z,50.61
2023-04-04T04:11:48.679Z,50.44
2023-04-04T04:14:18.427Z,50.25
2023-04-04T04:16:47.481Z,50.15
2023-04-04T04:19:36.339Z,50.33
2023-04-04T04:22:23.888Z,50.19
2023-04-04T04:25:11.051Z,50.46
2023-04-04T04:27:40.869Z,50.41
2023-04-04T04:30:11.295Z,50.63
2023-04-04T04:32:40.388Z,50.60
2023-04-04T04:35:11.693Z,50.28
2023-04-04T04:37:40.779Z,50.36
2023-04-04T04:40:28.403Z,50.09
2023-04-04T04:42:57.806Z,50.14
2023-04-04T04:45:45.256Z,50.39
2023-04-04T04:48:14.521Z,50.33
2023-04-04T04:50:45.824Z,50.05
2023-04-04T04:53:15.161Z,50.30
2023-04-04T04:55:45.359Z,50.35
2023-04-04T04:58:31.558Z,50.33
2023-04-04T05:01:00.817Z,49.93
2023-04-04T05:03:30.018Z,50.13
2023-04-04T05:06:00.737Z,50.20
2023-04-04T05:08:29.986Z,49.80
2023-04-04T05:11:00.652Z,50.27
2023-04-04T05:13:29.845Z,50.19
2023-04-04T05:15:58.950Z,49.81
2023-04-04T05:18:46.144Z,49.82
2023-04-04T05:21:17.178Z,49.63
2023-04-04T05:24:03.333Z,49.41
2023-04-04T05:26:32.462Z,49.64
2023-04-04T05:29:01.797Z,49.94
2023-04-04T05:31:30.878Z,50.03
2023-04-04T05:34:18.515Z,49.91
2023-04-04T05:36:49.091Z,49.87
2023-04-04T05:39:18.186Z,49.97
2023-04-04T05:42:04.670Z,49.60
2023-04-04T05:44:33.799Z,49.59
2023-04-04T05:47:02.904Z,49.82
2023-04-04T05:49:32.121Z,49.96
2023-04-04T05:52:03.120Z,49.65
2023-04-04T05:54:50.486Z,49.88
2023-04-04T05:57:23.544Z,49.96
2023-04-04T06:00:12.479Z,49.60
2023-04-04T06:02:41.593Z,49.27
2023-04-04T06:05:28.818Z,49.66
2023-04-04T06:08:00.760Z,49.57
2023-04-04T06:10:46.891Z,49.04
2023-04-04T06:13:16.170Z,49.49
2023-04-04T06:15:45.252Z,49.70
2023-04-04T06:18:51.297Z,49.52
2023-04-04T06:21:20.391Z,49.46
2023-04-04T06:23:51.017Z,49.20
2023-04-04T06:26:39.214Z,49.46
2023-04-04T06:29:26.886Z,49.31
2023-04-04T06:31:56.016Z,49.71
2023-04-04T06:34:25.201Z,49.41
2023-04-04T06:36:54.428Z,49.22
2023-04-04T06:39:25.121Z,49.28
2023-04-04T06:42:11.405Z,49.32
2023-04-04T06:44:40.535Z,49.18
2023-04-04T06:47:09.657Z,49.30
2023-04-04T06:49:38.750Z,49.06
2023-04-04T06:52:07.908Z,48.94
2023-04-04T06:54:38.568Z,49.07
2023-04-04T06:57:07.797Z,48.85
2023-04-04T06:59:36.863Z,48.77
2023-04-04T07:02:05.963Z,48.76
2023-04-04T07:04:52.162Z,48.70
2023-04-04T07:07:21.217Z,48.71
2023-04-04T07:10:08.992Z,48.27
2023-04-04T07:12:56.486Z,48.09
2023-04-04T07:15:25.512Z,48.45
2023-04-04T07:17:54.719Z,48.37
2023-04-04T07:20:23.861Z,47.92
2023-04-04T07:22:53.189Z,47.39
2023-04-04T07:25:27.198Z,47.09
2023-04-04T07:28:13.649Z,47.40
2023-04-04T07:30:43.221Z,47.67
2023-04-04T07:33:12.530Z,47.71
2023-04-04T07:36:00.441Z,47.69
2023-04-04T07:38:29.605Z,47.71
2023-04-04T07:41:01.421Z,47.31
2023-04-04T07:43:49.399Z,47.26
2023-04-04T07:46:18.558Z,47.12
2023-04-04T07:48:47.633Z,47.04
2023-04-04T07:51:17.144Z,47.08
2023-04-04T07:53:46.235Z,46.81
2023-04-04T07:56:16.865Z,46.34
2023-04-04T07:58:45.959Z,46.32
2023-04-04T08:01:17.514Z,46.44
2023-04-04T08:03:46.808Z,46.60
2023-04-04T08:06:34.854Z,46.21
2023-04-04T08:09:05.368Z,46.19
2023-04-04T08:11:56.734Z,45.89
2023-04-04T08:14:26.103Z,46.20
2023-04-04T08:16:55.314Z,46.58
2023-04-04T08:19:24.554Z,46.24
2023-04-04T08:21:53.825Z,46.27
2023-04-04T08:24:23.500Z,46.21
2023-04-04T08:27:11.995Z,45.69
2023-04-04T08:29:41.173Z,46.15
2023-04-04T08:32:10.293Z,45.39
2023-04-04T08:34:39.345Z,44.91
2023-04-04T08:37:10.203Z,45.08
2023-04-04T08:39:57.525Z,43.57
2023-04-04T08:42:32.809Z,42.92
2023-04-04T08:45:05.061Z,43.08
2023-04-04T08:48:11.050Z,42.19
2023-04-04T08:50:42.969Z,41.95
2023-04-04T08:53:13.202Z,42.55
2023-04-04T08:55:42.747Z,42.59
2023-04-04T08:58:17.618Z,42.77
2023-04-04T09:00:46.964Z,42.83
2023-04-04T09:03:23.454Z,42.14
2023-04-04T09:05:53.397Z,42.38
2023-04-04T09:08:25.249Z,41.34
2023-04-04T09:11:13.873Z,42.07
2023-04-04T09:13:46.964Z,41.22
2023-04-04T09:16:16.559Z,41.92
2023-04-04T09:18:47.923Z,42.56
2023-04-04T09:21:34.927Z,41.16
2023-04-04T09:24:21.462Z,41.51
2023-04-04T09:27:08.554Z,41.63
2023-04-04T09:29:57.002Z,42.38
2023-04-04T09:32:26.692Z,41.33
2023-04-04T09:34:56.713Z,41.92
2023-04-04T09:37:26.086Z,41.99
2023-04-04T09:39:55.564Z,41.52
2023-04-04T09:42:26.926Z,41.28
2023-04-04T09:45:22.309Z,41.14
2023-04-04T09:47:59.147Z,41.78
2023-04-04T09:50:29.581Z,41.71
2023-04-04T09:53:00.901Z,40.42
2023-04-04T09:55:37.022Z,41.03
2023-04-04T09:58:15.825Z,41.79
2023-04-04T10:00:49.562Z,41.06
2023-04-04T10:03:19.108Z,41.15
2023-04-04T10:06:07.879Z,41.57
2023-04-04T10:08:40.795Z,42.27
2023-04-04T10:11:32.698Z,42.42
2023-04-04T10:14:03.169Z,42.80
2023-04-04T10:17:11.204Z,42.75
2023-04-04T10:19:40.551Z,42.73
2023-04-04T10:22:27.340Z,43.41
2023-04-04T10:24:56.752Z,43.66
2023-04-04T10:27:25.822Z,42.70
2023-04-04T10:29:55.241Z,43.18
2023-04-04T10:32:35.189Z,43.32
2023-04-04T10:35:08.137Z,43.61
2023-04-04T10:38:16.202Z,43.34
2023-04-04T10:41:21.304Z,43.02
2023-04-04T10:43:52.905Z,43.14
2023-04-04T10:46:31.231Z,43.63
2023-04-04T10:49:03.430Z,43.72
2023-04-04T10:51:56.367Z,43.03
2023-04-04T10:54:44.458Z,43.40
2023-04-04T10:57:14.618Z,43.41
2023-04-04T11:00:18.255Z,43.72
2023-04-04T11:02:50.158Z,43.95
2023-04-04T11:05:47.644Z,44.00
2023-04-04T11:08:20.370Z,43.82
2023-04-04T11:10:51.540Z,44.20
2023-04-04T11:13:39.167Z,44.15
2023-04-04T11:16:12.863Z,44.53
2023-04-04T11:18:49.245Z,44.63
2023-04-04T11:21:24.520Z,44.67
2023-04-04T11:24:30.354Z,44.79
2023-04-04T11:27:00.459Z,45.18
2023-04-04T11:29:54.335Z,45.24
2023-04-04T11:33:07.378Z,45.16
2023-04-04T11:35:41.697Z,45.25
2023-04-04T11:38:18.678Z,45.55
2023-04-04T11:41:08.358Z,45.64
2023-04-04T11:43:47.636Z,45.62
2023-04-04T11:46:35.037Z,45.77
2023-04-04T11:49:05.252Z,45.82
2023-04-04T11:51:53.451Z,46.00
2023-04-04T11:54:24.157Z,46.03
2023-04-04T11:56:54.125Z,46.28
2023-04-04T11:59:24.186Z,46.48
2023-04-04T12:01:53.456Z,46.50
2023-04-04T12:04:23.089Z,46.65
2023-04-04T12:06:54.817Z,46.94
2023-04-04T12:09:27.674Z,47.02
2023-04-04T12:11:57.468Z,47.11
2023-04-04T12:14:27.603Z,46.96
2023-04-04T12:16:57.961Z,47.10
2023-04-04T12:19:47.433Z,46.94
2023-04-04T12:22:33.675Z,47.08
2023-04-04T12:25:06.478Z,46.36
2023-04-04T12:27:54.135Z,45.63
2023-04-04T12:30:24.135Z,45.60
2023-04-04T12:32:53.846Z,45.76
2023-04-04T12:35:23.112Z,45.42
2023-04-04T12:38:22.576Z,45.78
2023-04-04T12:40:53.727Z,46.14
2023-04-04T12:43:22.859Z,46.31
2023-04-04T12:45:53.090Z,46.90
2023-04-04T12:48:28.144Z,47.25
2023-04-04T12:51:16.711Z,48.33
2023-04-04T12:53:54.266Z,49.52
2023-04-04T12:56:44.645Z,50.06
2023-04-04T12:59:31.646Z,51.13
2023-04-04T13:02:20.188Z,52.99
2023-04-04T13:04:50.461Z,54.33
2023-04-04T13:07:24.626Z,54.31
2023-04-04T13:09:55.188Z,54.87
2023-04-04T13:12:25.813Z,55.64
2023-04-04T13:15:01.979Z,57.01
2023-04-04T13:17:44.793Z,57.97
2023-04-04T13:20:32.350Z,58.74
2023-04-04T13:23:01.557Z,59.03
2023-04-04T13:25:30.923Z,58.24
2023-04-04T13:28:19.917Z,58.49
2023-04-04T13:31:06.210Z,58.71
2023-04-04T13:33:53.586Z,58.91
2023-04-04T13:36:42.996Z,59.85
2023-04-04T13:39:30.779Z,60.01
2023-04-04T13:42:17.027Z,58.98
2023-04-04T13:44:47.605Z,59.73
2023-04-04T13:47:17.413Z,59.64
2023-04-04T13:49:46.488Z,59.51
2023-04-04T13:52:15.577Z,59.76
2023-04-04T13:54:45.439Z,60.40
2023-04-04T13:57:32.586Z,60.62
2023-04-04T14:00:20.295Z,61.63
2023-04-04T14:02:54.826Z,61.34
2023-04-04T14:06:09.238Z,61.08
2023-04-04T14:08:56.646Z,60.92
2023-04-04T14:11:48.523Z,60.85
2023-04-04T14:14:37.768Z,61.22
2023-04-04T14:17:27.106Z,61.91
2023-04-04T14:19:56.170Z,61.38
2023-04-04T14:22:25.740Z,62.08
2023-04-04T14:25:11.971Z,62.07
2023-04-04T14:27:59.514Z,62.99
2023-04-04T14:30:29.163Z,62.25
2023-04-04T14:32:59.838Z,62.53
2023-04-04T14:35:28.913Z,62.21
2023-04-04T14:37:58.086Z,62.33
2023-04-04T14:40:44.442Z,62.46
2023-04-04T14:43:13.584Z,62.79
2023-04-04T14:45:43.313Z,63.60
2023-04-04T14:48:32.154Z,63.60
2023-04-04T14:51:01.362Z,64.06
2023-04-04T14:53:49.318Z,64.12
2023-04-04T14:56:18.670Z,64.34
2023-04-04T14:58:48.184Z,64.26
2023-04-04T15:01:17.813Z,63.97
2023-04-04T15:03:49.067Z,64.00
2023-04-04T15:06:18.305Z,64.07
2023-04-04T15:08:47.456Z,64.42
2023-04-04T15:11:52.492Z,64.61
2023-04-04T15:14:21.701Z,64.67
2023-04-04T15:16:50.844Z,64.98
2023-04-04T15:19:41.863Z,65.33
2023-04-04T15:22:11.072Z,64.99
2023-04-04T15:24:40.625Z,65.06
2023-04-04T15:27:09.698Z,64.86
2023-04-04T15:29:57.006Z,65.10
2023-04-04T15:32:26.469Z,65.09
2023-04-04T15:34:58.811Z,65.60
2023-04-04T15:37:45.035Z,65.97
2023-04-04T15:40:32.568Z,65.91
2023-04-04T15:43:01.781Z,66.01
2023-04-04T15:45:30.917Z,66.52
2023-04-04T15:48:00.075Z,66.70
2023-04-04T15:50:30.906Z,67.24
2023-04-04T15:52:59.978Z,67.13
2023-04-04T15:56:04.679Z,66.94
2023-04-04T15:59:09.472Z,67.00
2023-04-04T16:01:55.529Z,67.27
2023-04-04T16:04:41.730Z,67.05
2023-04-04T16:07:30.907Z,67.36
2023-04-04T16:10:00.204Z,67.61
2023-04-04T16:13:06.100Z,67.50
2023-04-04T16:15:36.396Z,67.90
2023-04-04T16:18:05.979Z,67.49
2023-04-04T16:20:53.544Z,68.38
2023-04-04T16:23:44.332Z,67.95
2023-04-04T16:26:13.741Z,67.80
2023-04-04T16:28:44.390Z,68.19
2023-04-04T16:31:16.731Z,68.38
2023-04-04T16:34:04.309Z,67.84
2023-04-04T16:36:33.590Z,67.50
2023-04-04T16:39:04.515Z,67.74
2023-04-04T16:41:34.698Z,67.71
2023-04-04T16:44:03.952Z,66.79
2023-04-04T16:46:33.249Z,66.80
2023-04-04T16:49:02.542Z,66.75
2023-04-04T16:51:32.500Z,66.68
2023-04-04T16:54:03.334Z,66.69
2023-04-04T16:56:32.592Z,66.10
2023-04-04T16:59:01.926Z,66.04
2023-04-04T17:01:32.209Z,65.92
2023-04-04T17:04:41.651Z,65.62
2023-04-04T17:07:11.431Z,65.32
2023-04-04T17:10:00.523Z,65.27
2023-04-04T17:12:48.014Z,65.02
2023-04-04T17:15:18.070Z,64.90
2023-04-04T17:17:47.551Z,65.46
2023-04-04T17:20:19.591Z,65.30
2023-04-04T17:22:50.156Z,65.54
2023-04-04T17:25:22.864Z,65.37
2023-04-04T17:27:52.130Z,65.53
2023-04-04T17:30:21.653Z,65.30
2023-04-04T17:32:51.823Z,65.44
2023-04-04T17:35:22.743Z,65.58
2023-04-04T17:38:27.545Z,65.52
2023-04-04T17:41:17.360Z,65.87
2023-04-04T17:44:03.483Z,65.62
2023-04-04T17:46:33.228Z,65.52
2023-04-04T17:49:02.433Z,65.37
2023-04-04T17:51:32.452Z,64.86
2023-04-04T17:54:18.808Z,65.09
2023-04-04T17:56:50.685Z,65.34
2023-04-04T17:59:37.186Z,65.67
2023-04-04T18:02:06.479Z,65.95
2023-04-04T18:04:35.817Z,65.98
2023-04-04T18:07:23.139Z,66.20
2023-04-04T18:10:09.194Z,65.97
2023-04-04T18:12:40.020Z,66.00
2023-04-04T18:15:10.208Z,66.34
2023-04-04T18:17:40.223Z,65.96
2023-04-04T18:20:14.265Z,66.24
2023-04-04T18:23:04.830Z,66.20
2023-04-04T18:26:10.184Z,66.41
2023-04-04T18:28:41.039Z,66.38
2023-04-04T18:31:10.663Z,66.27
2023-04-04T18:33:57.075Z,66.46
2023-04-04T18:36:27.163Z,66.14
2023-04-04T18:38:56.449Z,66.23
2023-04-04T18:41:26.014Z,65.90
2023-04-04T18:43:56.904Z,66.25
2023-04-04T18:46:26.342Z,66.14
2023-04-04T18:48:55.657Z,66.18
2023-04-04T18:51:25.077Z,66.02
2023-04-04T18:54:32.455Z,66.35
2023-04-04T18:57:01.723Z,65.87
2023-04-04T18:59:49.490Z,66.04
2023-04-04T19:02:18.870Z,65.96
2023-04-04T19:05:06.297Z,66.09
2023-04-04T19:07:36.977Z,66.34
2023-04-04T19:10:08.397Z,66.14
2023-04-04T19:12:37.763Z,65.93
2023-04-04T19:15:26.609Z,65.81
2023-04-04T19:18:12.801Z,66.32
2023-04-04T19:21:00.755Z,66.20
2023-04-04T19:23:29.993Z,66.27
2023-04-04T19:26:02.560Z,65.54
2023-04-04T19:28:31.936Z,66.09
2023-04-04T19:31:04.942Z,65.99
2023-04-04T19:33:35.366Z,66.21
2023-04-04T19:36:11.298Z,66.22
2023-04-04T19:38:59.476Z,66.47
2023-04-04T19:41:52.981Z,66.41
2023-04-04T19:44:22.975Z,65.82
2023-04-04T19:46:55.223Z,65.96
2023-04-04T19:49:42.654Z,66.23
2023-04-04T19:52:12.164Z,66.31
2023-04-04T19:54:43.288Z,66.67
2023-04-04T19:57:19.414Z,66.23
2023-04-04T20:00:14.409Z,66.12
2023-04-04T20:02:52.404Z,66.28
2023-04-04T20:05:59.966Z,66.47
2023-04-04T20:08:41.542Z,66.36
2023-04-04T20:11:10.876Z,65.76
2023-04-04T20:13:41.279Z,66.15
2023-04-04T20:16:33.132Z,66.12
2023-04-04T20:19:06.646Z,66.71
2023-04-04T20:21:36.404Z,66.63
2023-04-04T20:24:08.736Z,66.91
2023-04-04T20:27:08.027Z,66.84
2023-04-04T20:29:56.503Z,66.72
2023-04-04T20:32:25.884Z,66.84
2023-04-04T20:34:56.783Z,66.91
2023-04-04T20:37:26.841Z,66.58
2023-04-04T20:40:15.172Z,67.36
2023-04-04T20:42:44.600Z,67.38
2023-04-04T20:45:47.235Z,67.31
2023-04-04T20:48:36.564Z,67.41
2023-04-04T20:51:23.764Z,66.95
2023-04-04T20:53:54.318Z,67.08
2023-04-04T20:56:55.715Z,66.94
2023-04-04T20:59:44.088Z,66.80
2023-04-04T21:02:33.121Z,67.27
2023-04-04T21:05:02.522Z,66.69
2023-04-04T21:08:16.913Z,67.01
2023-04-04T21:11:08.824Z,67.06
2023-04-04T21:14:14.219Z,66.53
2023-04-04T21:16:44.255Z,66.63
2023-04-04T21:19:14.512Z,66.98
2023-04-04T21:21:43.835Z,66.99
2023-04-04T21:24:15.883Z,67.23
2023-04-04T21:26:45.739Z,66.82
2023-04-04T21:29:22.674Z,66.74
2023-04-04T21:32:10.896Z,67.13
2023-04-04T21:34:40.140Z,66.60
2023-04-04T21:37:28.221Z,66.47
2023-04-04T21:40:18.019Z,66.90
2023-04-04T21:42:47.325Z,66.85
2023-04-04T21:45:16.690Z,66.89
2023-04-04T21:48:04.134Z,67.08
2023-04-04T21:51:09.732Z,67.23
2023-04-04T21:53:38.964Z,66.83
2023-04-04T21:56:31.909Z,66.86
2023-04-04T21:59:02.494Z,67.12
2023-04-04T22:01:32.436Z,66.84
2023-04-04T22:04:01.804Z,67.42
2023-04-04T22:06:31.604Z,66.88
2023-04-04T22:09:02.139Z,67.07
2023-04-04T22:11:50.374Z,67.38
2023-04-04T22:14:19.779Z,67.21
2023-04-04T22:16:49.188Z,67.44
2023-04-04T22:19:18.361Z,67.41
2023-04-04T22:21:48.883Z,67.45
2023-04-04T22:24:19.381Z,67.53
2023-04-04T22:26:50.943Z,67.33
2023-04-04T22:29:20.301Z,67.36
2023-04-04T22:32:08.104Z,67.25
2023-04-04T22:34:55.882Z,67.42
2023-04-04T22:37:25.167Z,67.51
2023-04-04T22:39:54.465Z,67.63
2023-04-04T22:42:43.270Z,67.97
2023-04-04T22:45:30.591Z,67.61
2023-04-04T22:48:18.073Z,67.83
2023-04-04T22:50:50.190Z,67.27
2023-04-04T22:53:25.443Z,67.26
2023-04-04T22:55:58.738Z,67.28
2023-04-04T22:58:29.479Z,66.96
2023-04-04T23:00:58.693Z,67.68
2023-04-04T23:03:28.041Z,67.87
2023-04-04T23:05:57.352Z,67.37
2023-04-04T23:08:26.744Z,67.73
2023-04-04T23:11:14.450Z,67.70
2023-04-04T23:13:45.751Z,67.61
2023-04-04T23:16:15.041Z,67.28
2023-04-04T23:19:01.107Z,67.86
2023-04-04T23:21:30.567Z,67.57
2023-04-04T23:24:00.218Z,67.63
2023-04-04T23:26:29.505Z,67.24
2023-04-04T23:29:01.783Z,67.46
2023-04-04T23:31:31.433Z,67.59
2023-04-04T23:34:01.179Z,67.51
2023-04-04T23:36:48.880Z,67.31
2023-04-04T23:39:18.693Z,67.75
2023-04-04T23:41:47.952Z,67.55
2023-04-04T23:44:37.005Z,67.48
2023-04-04T23:47:06.470Z,67.66
2023-04-04T23:49:35.821Z,67.39
2023-04-04T23:52:07.256Z,67.43
2023-04-04T23:54:36.563Z,67.65
2023-04-04T23:57:06.244Z,67.30
2023-04-04T23:59:36.981Z,67.80
